Time;durP1;ratioP1;P1;durP2;ratioP2;P2;SDS_P1;SDS_P2;PMS_P1;PMS_P2;Temp;Humidity;BMP_temperature;BMP_pressure;BME280_temperature;BME280_humidity;BME280_pressure;Samples;Min_cycle;Max_cycle;Signal;HPM_P1;HPM_P2
2022/12/10 00:01:09;;;;;;;40.45;15.30;;;-0.40;99.90;;;;;;5050960;28;20021;-75
2022/12/10 00:03:36;;;;;;;54.90;22.48;;;-0.30;99.90;;;;;;5050942;28;20056;-77
2022/12/10 00:06:03;;;;;;;41.47;17.67;;;1.70;99.90;;;;;;5068781;28;20370;-76
2022/12/10 00:08:28;;;;;;;38.47;15.15;;;-0.40;99.90;;;;;;5072879;28;20430;-76
2022/12/10 00:10:54;;;;;;;38.28;16.98;;;-0.40;99.90;;;;;;5051559;28;20486;-81
2022/12/10 00:13:20;;;;;;;42.60;19.48;;;1.50;99.90;;;;;;5048857;28;20021;-74
2022/12/10 00:15:45;;;;;;;34.75;15.10;;;1.60;99.90;;;;;;5048511;28;20072;-74
2022/12/10 00:18:11;;;;;;;40.30;17.45;;;-0.40;99.90;;;;;;5047727;28;20478;-74
2022/12/10 00:20:37;;;;;;;44.40;15.40;;;2.20;99.90;;;;;;5048878;28;20564;-76
2022/12/10 00:23:03;;;;;;;32.25;14.63;;;2.00;99.90;;;;;;5065128;28;20048;-74
2022/12/10 00:25:29;;;;;;;32.72;13.98;;;1.30;99.90;;;;;;5067283;28;20024;-74
2022/12/10 00:27:55;;;;;;;38.88;15.23;;;-0.40;99.90;;;;;;5066626;28;20035;-73
2022/12/10 00:30:20;;;;;;;33.35;14.60;;;-0.40;99.90;;;;;;5068281;28;20481;-73
2022/12/10 00:32:46;;;;;;;29.17;16.75;;;0.90;99.90;;;;;;5068064;28;20409;-73
2022/12/10 00:35:12;;;;;;;30.45;14.73;;;1.00;99.90;;;;;;5067949;28;20024;-75
2022/12/10 00:37:37;;;;;;;30.98;15.43;;;-0.30;99.90;;;;;;5067962;28;20126;-73
2022/12/10 00:40:04;;;;;;;38.17;15.80;;;1.30;99.90;;;;;;5068134;28;20564;-73
2022/12/10 00:42:30;;;;;;;33.65;16.48;;;-0.30;99.90;;;;;;5067926;28;20120;-75
2022/12/10 00:44:56;;;;;;;31.77;14.85;;;-0.30;99.90;;;;;;5068102;28;20160;-74
2022/12/10 00:47:21;;;;;;;35.40;15.80;;;-0.30;99.90;;;;;;5069696;28;20031;-75
2022/12/10 00:49:47;;;;;;;34.53;14.85;;;-0.30;99.90;;;;;;5069561;28;20469;-74
2022/12/10 00:52:12;;;;;;;39.38;15.43;;;-0.20;99.90;;;;;;5069918;28;20021;-75
2022/12/10 00:54:38;;;;;;;31.58;15.95;;;2.90;99.90;;;;;;5067692;28;20245;-75
2022/12/10 00:57:04;;;;;;;36.45;16.00;;;2.80;99.90;;;;;;5069453;28;20508;-75
2022/12/10 00:59:29;;;;;;;32.67;15.43;;;-0.40;99.90;;;;;;5069549;28;20431;-74
2022/12/10 01:01:55;;;;;;;32.92;15.38;;;0.90;99.90;;;;;;5068413;28;20027;-76
2022/12/10 01:04:21;;;;;;;30.25;14.82;;;-0.40;99.90;;;;;;5068119;28;20020;-74
2022/12/10 01:06:52;;;;;;;44.55;17.25;;;-0.40;99.90;;;;;;5069384;28;20028;-75
2022/12/10 01:09:29;;;;;;;37.15;15.75;;;1.30;99.90;;;;;;5068342;28;20101;-75
2022/12/10 01:11:57;;;;;;;28.73;14.20;;;-0.30;99.90;;;;;;5069671;28;20020;-74
2022/12/10 01:14:25;;;;;;;35.78;16.67;;;2.40;99.90;;;;;;5069576;28;20568;-75
2022/12/10 01:16:56;;;;;;;39.20;17.60;;;0.30;99.90;;;;;;5069741;28;20033;-74
2022/12/10 01:19:22;;;;;;;35.60;14.80;;;-0.30;99.90;;;;;;5069431;28;20316;-74
2022/12/10 01:21:52;;;;;;;31.90;13.50;;;-0.30;99.90;;;;;;5068910;28;20049;-74
2022/12/10 01:24:19;;;;;;;28.65;11.65;;;-0.40;99.90;;;;;;5069355;28;20024;-73
2022/12/10 01:26:44;;;;;;;25.38;12.70;;;-0.40;99.90;;;;;;5069329;28;20025;-73
2022/12/10 01:29:11;;;;;;;30.05;13.95;;;1.20;99.90;;;;;;5069120;28;20036;-74
2022/12/10 01:31:37;;;;;;;26.00;13.85;;;0.30;99.90;;;;;;5069392;28;20063;-73
2022/12/10 01:34:05;;;;;;;33.55;13.88;;;1.30;99.90;;;;;;5067991;28;20013;-75
2022/12/10 01:36:37;;;;;;;26.02;13.27;;;-0.30;99.90;;;;;;5069277;28;20035;-75
2022/12/10 01:39:05;;;;;;;40.13;14.95;;;-0.30;99.90;;;;;;5069034;28;20035;-75
2022/12/10 01:41:35;;;;;;;28.77;14.50;;;-0.20;99.90;;;;;;5069074;28;20037;-74
2022/12/10 01:44:00;;;;;;;;;;;-0.10;99.90;;;;;;5067929;28;20029;-74
2022/12/10 01:46:31;;;;;;;38.92;14.35;;;-0.10;99.90;;;;;;5069196;28;19905;-75
2022/12/10 01:48:59;;;;;;;29.58;12.57;;;1.60;99.90;;;;;;5071077;28;20036;-75
2022/12/10 01:51:34;;;;;;;31.15;12.35;;;0.60;99.90;;;;;;5073428;28;20016;-74
2022/12/10 01:54:01;;;;;;;33.92;14.63;;;-0.30;99.90;;;;;;5072932;28;20552;-75
2022/12/10 01:56:26;;;;;;;35.85;14.63;;;1.50;99.90;;;;;;5071069;28;20037;-75
2022/12/10 01:58:55;;;;;;;25.60;12.18;;;-0.30;99.90;;;;;;5072558;28;20051;-74
2022/12/10 02:01:42;;;;;;;27.73;12.90;;;-0.30;99.90;;;;;;5072717;28;20504;-76
2022/12/10 02:04:20;;;;;;;29.42;14.35;;;-0.20;99.90;;;;;;5072729;28;20111;-73
2022/12/10 02:06:58;;;;;;;31.27;13.20;;;-0.10;99.90;;;;;;5071412;28;20095;-74
2022/12/10 02:09:45;;;;;;;26.42;12.23;;;-0.20;99.90;;;;;;5072822;28;20492;-75
2022/12/10 02:12:31;;;;;;;28.23;11.02;;;-0.20;99.90;;;;;;5072337;28;20024;-74
2022/12/10 02:15:03;;;;;;;34.40;14.70;;;-0.20;99.90;;;;;;5072327;28;20485;-75
2022/12/10 02:17:36;;;;;;;25.83;11.25;;;-0.20;99.90;;;;;;5072569;28;20070;-75
2022/12/10 02:20:19;;;;;;;25.52;12.18;;;-0.20;99.90;;;;;;5071034;28;20020;-73
2022/12/10 02:23:13;;;;;;;31.95;14.73;;;-0.20;99.90;;;;;;5071012;28;20173;-74
2022/12/10 02:25:57;;;;;;;34.47;13.15;;;0.00;99.90;;;;;;5048594;28;20033;-74
2022/12/10 02:28:39;;;;;;;27.45;12.70;;;-0.20;99.90;;;;;;5072037;28;20029;-74
2022/12/10 02:31:06;;;;;;;29.48;12.00;;;-0.20;99.90;;;;;;5072212;28;20497;-75
2022/12/10 02:33:37;;;;;;;31.42;13.15;;;-0.10;99.90;;;;;;5070924;28;20426;-75
2022/12/10 02:36:04;;;;;;;32.53;13.07;;;-0.30;99.90;;;;;;5070538;28;20039;-74
2022/12/10 02:38:34;;;;;;;28.23;13.20;;;-0.20;99.90;;;;;;5070911;28;20112;-74
2022/12/10 02:41:05;;;;;;;28.15;12.68;;;-0.20;99.90;;;;;;5070991;28;20125;-75
2022/12/10 02:43:32;;;;;;;27.00;13.73;;;-0.30;99.90;;;;;;5071845;28;20748;-74
2022/12/10 02:45:59;;;;;;;39.15;15.15;;;-0.30;99.90;;;;;;5072437;28;20028;-74
2022/12/10 02:48:26;;;;;;;32.58;12.75;;;-0.30;99.90;;;;;;5071627;28;20037;-74
2022/12/10 02:50:51;;;;;;;33.38;13.43;;;-0.30;99.90;;;;;;5071857;28;20082;-75
2022/12/10 02:53:17;;;;;;;28.73;14.20;;;-0.30;99.90;;;;;;5071914;28;20028;-74
2022/12/10 02:56:14;;;;;;;28.80;12.75;;;-0.20;99.90;;;;;;5071712;28;20036;-74
2022/12/10 02:59:21;;;;;;;27.27;12.32;;;-0.30;99.90;;;;;;5071520;28;20104;-73
2022/12/10 03:02:10;;;;;;;24.35;11.75;;;-0.30;99.90;;;;;;5069473;28;20025;-74
2022/12/10 03:05:14;;;;;;;30.30;13.73;;;-0.20;99.90;;;;;;5071545;28;20027;-74
2022/12/10 03:08:09;;;;;;;29.60;15.57;;;-0.20;99.90;;;;;;5033630;28;20037;-74
2022/12/10 03:10:52;;;;;;;27.88;14.77;;;-0.20;99.90;;;;;;5063838;28;20429;-74
2022/12/10 03:13:22;;;;;;;35.97;16.88;;;-0.20;99.90;;;;;;5070048;28;20051;-75
2022/12/10 03:15:49;;;;;;;38.45;13.63;;;-0.20;99.90;;;;;;5069977;28;20085;-74
2022/12/10 03:18:18;;;;;;;37.88;14.77;;;-0.20;99.90;;;;;;5071360;28;20082;-74
2022/12/10 03:20:45;;;;;;;;;;;0.20;99.90;;;;;;5071745;28;20029;-75
2022/12/10 03:23:18;;;;;;;43.28;18.52;;;1.40;99.90;;;;;;5071753;28;20320;-74
2022/12/10 03:25:46;;;;;;;30.77;13.77;;;1.80;99.90;;;;;;5069818;28;20025;-74
2022/12/10 03:28:12;;;;;;;31.92;13.95;;;0.00;99.90;;;;;;5070897;28;20063;-74
2022/12/10 03:30:40;;;;;;;30.50;12.45;;;1.80;99.90;;;;;;5071086;28;20024;-74
2022/12/10 03:33:06;;;;;;;26.13;13.07;;;1.50;99.90;;;;;;5070978;28;20021;-74
2022/12/10 03:35:32;;;;;;;30.92;15.13;;;-0.20;99.90;;;;;;5071340;28;20376;-74
2022/12/10 03:37:58;;;;;;;32.08;15.82;;;-0.20;99.90;;;;;;5071036;28;20310;-74
2022/12/10 03:40:25;;;;;;;35.50;15.85;;;-0.20;99.90;;;;;;5070878;28;20354;-74
2022/12/10 03:42:50;;;;;;;36.15;13.43;;;1.00;99.90;;;;;;5071012;28;20028;-74
2022/12/10 03:45:16;;;;;;;30.35;13.45;;;0.20;99.90;;;;;;5070825;28;20016;-74
2022/12/10 03:47:42;;;;;;;27.00;14.75;;;-0.30;99.90;;;;;;5070836;28;20086;-74
2022/12/10 03:50:09;;;;;;;29.42;13.32;;;0.10;99.90;;;;;;5070683;28;20052;-74
2022/12/10 03:52:35;;;;;;;31.75;12.50;;;-0.10;99.90;;;;;;5070496;28;20469;-74
2022/12/10 03:55:01;;;;;;;31.55;16.02;;;-0.10;99.90;;;;;;5070467;28;20032;-74
2022/12/10 03:57:27;;;;;;;28.52;14.60;;;-0.20;99.90;;;;;;5070242;28;20051;-73
2022/12/10 03:59:53;;;;;;;33.97;14.45;;;2.60;99.90;;;;;;5070469;28;20031;-74
2022/12/10 04:02:19;;;;;;;26.42;12.85;;;0.70;99.90;;;;;;5070443;28;20021;-74
2022/12/10 04:04:44;;;;;;;31.25;12.13;;;-0.20;99.90;;;;;;5070349;28;20550;-73
2022/12/10 04:07:11;;;;;;;31.58;12.45;;;-0.20;99.90;;;;;;5070256;28;20024;-73
2022/12/10 04:09:36;;;;;;;29.73;14.82;;;-0.20;99.90;;;;;;5070356;28;20469;-73
2022/12/10 04:12:02;;;;;;;24.35;12.27;;;2.10;99.90;;;;;;5069406;28;20094;-74
2022/12/10 04:17:19;;;;;;;32.83;13.90;;;2.30;99.90;;;;;;5061479;28;20037;-74
2022/12/10 04:19:45;;;;;;;24.25;13.15;;;-0.20;99.90;;;;;;5070159;28;20027;-73
2022/12/10 04:27:40;;;;;;;34.53;13.95;;;-0.30;99.90;;;;;;5070066;28;20039;-73
2022/12/10 04:30:09;;;;;;;29.20;13.65;;;-0.20;99.90;;;;;;5069980;28;20048;-73
2022/12/10 04:32:34;;;;;;;22.65;11.60;;;-0.20;99.90;;;;;;5070228;28;20039;-73
2022/12/10 04:35:00;;;;;;;27.30;12.32;;;-0.20;99.90;;;;;;5070126;28;20020;-73
2022/12/10 04:37:27;;;;;;;26.73;12.65;;;-0.20;99.90;;;;;;5069686;28;20044;-74
2022/12/10 04:39:52;;;;;;;28.20;13.65;;;-0.20;99.90;;;;;;5069778;28;20408;-73
2022/12/10 04:42:20;;;;;;;24.60;14.60;;;-0.30;99.90;;;;;;5069602;28;20100;-73
2022/12/10 04:44:45;;;;;;;24.42;12.55;;;-0.30;99.90;;;;;;5069996;28;20385;-73
2022/12/10 04:47:12;;;;;;;28.15;11.88;;;-0.20;99.90;;;;;;5069740;28;20028;-73
2022/12/10 04:49:38;;;;;;;25.88;14.98;;;-0.20;99.90;;;;;;5069757;28;20099;-74
2022/12/10 04:52:05;;;;;;;30.23;13.48;;;-0.10;99.90;;;;;;5069741;28;20294;-74
2022/12/10 04:54:31;;;;;;;30.30;13.90;;;1.50;99.90;;;;;;5069807;28;20469;-74
2022/12/10 04:56:56;;;;;;;30.85;15.10;;;1.30;99.90;;;;;;5069432;28;20036;-74
2022/12/10 04:59:22;;;;;;;25.15;12.35;;;0.90;99.90;;;;;;5069585;28;20453;-73
2022/12/10 05:01:48;;;;;;;27.45;11.57;;;2.00;99.90;;;;;;5069581;28;20025;-73
2022/12/10 05:04:16;;;;;;;26.23;12.38;;;-0.20;99.90;;;;;;5069579;28;20095;-73
2022/12/10 05:06:42;;;;;;;26.55;12.85;;;-0.20;99.90;;;;;;5068419;28;20040;-73
2022/12/10 05:09:10;;;;;;;30.20;14.68;;;-0.10;99.90;;;;;;5069506;28;20031;-74
2022/12/10 05:11:36;;;;;;;29.33;14.25;;;-0.10;99.90;;;;;;5070136;28;20021;-73
2022/12/10 05:14:02;;;;;;;25.95;12.95;;;-0.20;99.90;;;;;;5069496;28;20031;-73
2022/12/10 05:16:30;;;;;;;26.73;11.65;;;-0.20;99.90;;;;;;5071346;28;20056;-74
2022/12/10 05:18:56;;;;;;;29.17;15.38;;;1.00;99.90;;;;;;5069661;28;20078;-73
2022/12/10 05:21:23;;;;;;;27.05;12.13;;;1.80;99.90;;;;;;5068028;28;20052;-73
2022/12/10 05:23:51;;;;;;;23.83;13.02;;;0.90;99.90;;;;;;5071452;28;20025;-74
2022/12/10 05:26:22;;;;;;;22.30;10.75;;;1.70;99.90;;;;;;5073774;28;20124;-74
2022/12/10 05:28:49;;;;;;;20.45;10.82;;;0.30;99.90;;;;;;5073520;28;20036;-73
2022/12/10 05:31:23;;;;;;;23.55;11.10;;;-0.20;99.90;;;;;;5072659;28;20437;-74
2022/12/10 05:33:50;;;;;;;23.45;12.18;;;1.60;99.90;;;;;;5074085;28;20014;-74
2022/12/10 05:36:18;;;;;;;24.27;11.30;;;0.60;99.90;;;;;;5072428;28;20028;-74
2022/12/10 05:38:45;;;;;;;22.70;10.90;;;-0.10;99.90;;;;;;5073559;28;20018;-74
2022/12/10 05:41:16;;;;;;;17.83;9.90;;;0.90;99.90;;;;;;5073331;28;20356;-74
2022/12/10 05:43:44;;;;;;;30.27;13.15;;;-0.10;99.90;;;;;;5074984;28;20017;-73
2022/12/10 05:46:13;;;;;;;26.73;12.50;;;1.20;99.90;;;;;;5079747;28;20052;-74
2022/12/10 05:48:39;;;;;;;;;;;0.00;99.90;;;;;;5071530;28;20112;-74
2022/12/10 05:51:13;;;;;;;30.38;14.68;;;0.00;99.90;;;;;;5076410;28;19940;-74
2022/12/10 05:53:39;;;;;;;28.13;15.27;;;0.00;99.90;;;;;;5069294;28;20505;-74
2022/12/10 05:56:09;;;;;;;23.70;11.18;;;0.90;99.90;;;;;;5073957;28;20278;-73
2022/12/10 05:58:35;;;;;;;26.20;11.57;;;0.00;99.90;;;;;;5072957;28;20035;-74
2022/12/10 06:01:13;;;;;;;32.28;14.40;;;0.80;99.90;;;;;;5072106;28;20477;-74
2022/12/10 06:03:39;;;;;;;27.90;13.57;;;-0.10;99.90;;;;;;5075063;28;20437;-73
2022/12/10 06:06:05;;;;;;;36.60;15.93;;;-0.10;99.90;;;;;;5071684;28;20557;-74
2022/12/10 06:08:31;;;;;;;32.35;13.52;;;-0.10;99.90;;;;;;5073107;28;20250;-73
2022/12/10 06:11:01;;;;;;;29.10;13.63;;;-0.10;99.90;;;;;;5073119;28;20021;-74
2022/12/10 06:13:27;;;;;;;41.25;15.75;;;1.30;99.90;;;;;;5072838;28;20247;-74
2022/12/10 06:15:53;;;;;;;35.22;14.38;;;0.90;99.90;;;;;;5072699;28;20672;-73
2022/12/10 06:18:18;;;;;;;41.22;16.77;;;1.80;99.90;;;;;;5072861;28;20012;-73
2022/12/10 06:20:44;;;;;;;29.15;15.77;;;-0.10;99.90;;;;;;5072938;28;20035;-74
2022/12/10 06:23:09;;;;;;;36.03;17.48;;;1.50;99.90;;;;;;5071082;28;20516;-73
2022/12/10 06:25:38;;;;;;;30.95;15.10;;;2.60;99.90;;;;;;5072638;28;20111;-74
2022/12/10 06:28:04;;;;;;;31.95;14.68;;;2.20;99.90;;;;;;5072724;28;20404;-74
2022/12/10 06:30:29;;;;;;;35.28;14.68;;;-0.10;99.90;;;;;;5072447;28;20028;-73
2022/12/10 06:32:55;;;;;;;36.08;15.18;;;-0.10;99.90;;;;;;5073076;28;20465;-74
2022/12/10 06:35:21;;;;;;;33.97;13.65;;;1.70;99.90;;;;;;5072127;28;20466;-73
2022/12/10 06:37:48;;;;;;;35.40;13.43;;;1.00;99.90;;;;;;5072699;28;20032;-73
2022/12/10 06:40:13;;;;;;;35.42;17.27;;;1.30;99.90;;;;;;5072691;28;20031;-73
2022/12/10 06:42:39;;;;;;;29.38;12.07;;;-0.20;99.90;;;;;;5072935;28;20028;-74
2022/12/10 06:45:05;;;;;;;40.92;15.77;;;-0.20;99.90;;;;;;5072471;28;20020;-73
2022/12/10 06:47:31;;;;;;;32.85;14.88;;;-0.10;99.90;;;;;;5072286;28;20141;-74
2022/12/10 06:49:56;;;;;;;30.67;16.30;;;-0.10;99.90;;;;;;5072089;28;20473;-73
2022/12/10 06:52:22;;;;;;;35.65;15.23;;;-0.20;99.90;;;;;;5070562;28;20020;-73
2022/12/10 06:54:48;;;;;;;35.42;12.88;;;-0.20;99.90;;;;;;5070629;28;20055;-73
2022/12/10 06:57:13;;;;;;;34.65;16.70;;;1.40;99.90;;;;;;5071579;28;20479;-73
2022/12/10 06:59:39;;;;;;;41.13;15.48;;;-0.10;99.90;;;;;;5070642;28;20032;-73
2022/12/10 07:02:05;;;;;;;38.95;18.08;;;1.60;99.90;;;;;;5071790;28;20029;-73
2022/12/10 07:04:30;;;;;;;34.83;15.73;;;1.90;99.90;;;;;;5071703;28;20021;-74
2022/12/10 07:06:56;;;;;;;39.17;17.25;;;1.10;99.90;;;;;;5071912;28;20031;-73
2022/12/10 07:09:22;;;;;;;33.58;14.82;;;0.70;99.90;;;;;;5072142;28;20027;-73
2022/12/10 07:11:48;;;;;;;35.90;14.50;;;1.70;99.90;;;;;;5071271;28;20385;-73
2022/12/10 07:14:16;;;;;;;33.90;13.85;;;1.60;99.90;;;;;;5071441;28;20499;-75
2022/12/10 07:16:41;;;;;;;28.77;12.50;;;0.00;99.90;;;;;;5070074;28;20397;-75
2022/12/10 07:19:11;;;;;;;28.70;15.18;;;0.90;99.90;;;;;;5072400;28;20070;-75
2022/12/10 07:21:39;;;;;;;40.33;14.85;;;1.40;99.90;;;;;;5072419;28;20041;-75
2022/12/10 07:24:11;;;;;;;34.88;14.93;;;1.80;99.90;;;;;;5070109;28;20029;-75
2022/12/10 07:26:39;;;;;;;35.67;17.15;;;1.50;99.90;;;;;;5074725;28;20035;-75
2022/12/10 07:29:07;;;;;;;34.45;15.95;;;1.50;99.90;;;;;;5071673;28;20127;-75
2022/12/10 07:31:34;;;;;;;33.03;11.88;;;1.20;99.90;;;;;;5070477;28;20043;-75
2022/12/10 07:34:00;;;;;;;34.50;16.55;;;2.00;99.90;;;;;;5069667;28;20055;-75
2022/12/10 07:36:26;;;;;;;41.42;16.90;;;1.70;99.90;;;;;;5069693;28;20036;-76
2022/12/10 07:38:54;;;;;;;41.97;18.23;;;0.20;99.90;;;;;;5068581;28;20025;-76
2022/12/10 07:41:21;;;;;;;37.63;14.63;;;0.20;99.90;;;;;;5069896;28;20035;-76
2022/12/10 07:43:47;;;;;;;39.78;18.92;;;1.50;99.90;;;;;;5069783;28;20021;-76
2022/12/10 07:46:15;;;;;;;36.67;14.07;;;0.20;99.90;;;;;;5068805;28;20031;-76
2022/12/10 07:48:42;;;;;;;36.58;16.00;;;2.80;99.90;;;;;;5070366;28;20023;-75
2022/12/10 07:51:08;;;;;;;32.80;13.13;;;2.10;99.90;;;;;;5070200;28;20032;-75
2022/12/10 07:53:35;;;;;;;27.98;13.23;;;2.40;99.90;;;;;;5072634;28;20036;-75
2022/12/10 07:56:01;;;;;;;31.30;13.55;;;1.90;99.90;;;;;;5070087;28;20109;-76
2022/12/10 07:58:27;;;;;;;33.85;14.52;;;2.20;99.90;;;;;;5070036;28;20040;-76
2022/12/10 08:00:52;;;;;;;25.38;14.85;;;0.20;99.90;;;;;;5067581;28;20012;-76
2022/12/10 08:03:18;;;;;;;34.75;12.32;;;0.40;99.90;;;;;;5071664;28;20028;-76
2022/12/10 08:05:44;;;;;;;31.45;13.15;;;0.40;99.90;;;;;;5074180;28;20553;-75
2022/12/10 08:08:10;;;;;;;29.60;13.93;;;1.50;99.90;;;;;;5064595;28;20032;-75
2022/12/10 08:10:38;;;;;;;35.65;14.57;;;1.60;99.90;;;;;;5061687;28;20033;-75
2022/12/10 08:13:04;;;;;;;35.78;15.18;;;0.20;99.90;;;;;;5071180;28;20024;-75
2022/12/10 08:15:30;;;;;;;40.30;17.02;;;2.00;99.90;;;;;;5054774;28;20078;-75
2022/12/10 08:17:56;;;;;;;49.65;18.98;;;0.20;99.90;;;;;;5048332;28;20057;-75
2022/12/10 08:20:24;;;;;;;40.42;16.70;;;0.20;99.90;;;;;;5049251;28;20040;-75
2022/12/10 08:22:49;;;;;;;34.33;15.57;;;0.20;99.90;;;;;;5047284;28;20458;-74
2022/12/10 08:25:15;;;;;;;51.00;18.30;;;1.90;99.90;;;;;;5047895;28;20108;-75
2022/12/10 08:27:41;;;;;;;50.67;16.42;;;0.40;99.90;;;;;;5064488;28;20025;-74
2022/12/10 08:30:07;;;;;;;40.33;17.60;;;0.60;99.90;;;;;;5067719;28;20385;-74
2022/12/10 08:32:33;;;;;;;38.67;16.67;;;0.20;99.90;;;;;;5067907;28;20103;-74
2022/12/10 08:34:58;;;;;;;45.67;17.40;;;0.20;99.90;;;;;;5068697;28;20096;-73
2022/12/10 08:37:24;;;;;;;41.70;15.35;;;0.20;99.90;;;;;;5068327;28;20036;-75
2022/12/10 08:39:50;;;;;;;32.00;12.35;;;0.80;99.90;;;;;;5069180;28;20056;-74
2022/12/10 08:42:15;;;;;;;35.65;14.57;;;0.50;99.90;;;;;;5067624;28;20023;-75
2022/12/10 08:44:41;;;;;;;33.85;15.93;;;1.30;99.90;;;;;;5070990;28;20020;-75
2022/12/10 08:47:07;;;;;;;42.20;15.02;;;1.20;99.90;;;;;;5068856;28;20427;-76
2022/12/10 08:49:32;;;;;;;38.90;17.02;;;2.20;99.90;;;;;;5066890;28;20032;-75
2022/12/10 08:51:58;;;;;;;51.22;21.45;;;0.20;99.90;;;;;;5067386;28;20028;-74
2022/12/10 08:54:24;;;;;;;43.42;15.48;;;0.30;99.90;;;;;;5070050;28;20025;-74
2022/12/10 08:56:49;;;;;;;35.63;18.58;;;0.30;99.90;;;;;;5070565;28;20032;-73
2022/12/10 08:59:16;;;;;;;33.25;16.17;;;2.00;99.90;;;;;;5070729;28;20043;-73
2022/12/10 09:01:42;;;;;;;47.38;18.73;;;1.30;99.90;;;;;;5066028;28;20469;-74
2022/12/10 09:04:08;;;;;;;42.83;16.48;;;1.80;99.90;;;;;;5050588;28;20104;-74
2022/12/10 09:06:34;;;;;;;36.35;16.95;;;0.30;99.90;;;;;;5046899;28;20033;-74
2022/12/10 09:09:00;;;;;;;41.40;16.60;;;0.80;99.90;;;;;;5045616;28;20029;-74
2022/12/10 09:11:29;;;;;;;29.15;14.95;;;0.40;99.90;;;;;;5047103;28;20028;-74
2022/12/10 09:13:55;;;;;;;;;;;0.50;99.90;;;;;;5047201;28;20022;-74
2022/12/10 09:16:21;;;;;;;42.17;16.50;;;0.40;99.90;;;;;;5047265;28;19923;-74
2022/12/10 09:18:47;;;;;;;37.88;14.90;;;0.20;99.90;;;;;;5046413;28;20025;-74
2022/12/10 09:21:16;;;;;;;39.97;16.95;;;1.50;99.90;;;;;;5046388;28;20032;-74
2022/12/10 09:23:42;;;;;;;33.25;13.40;;;0.20;99.90;;;;;;5044830;28;20541;-75
2022/12/10 09:26:11;;;;;;;43.53;18.05;;;0.40;99.90;;;;;;5043402;28;20683;-74
2022/12/10 09:28:37;;;;;;;33.77;16.00;;;0.20;99.90;;;;;;5058800;28;20070;-74
2022/12/10 09:31:05;;;;;;;39.50;18.20;;;2.00;99.90;;;;;;5066347;28;20278;-74
2022/12/10 09:33:31;;;;;;;37.38;14.35;;;0.20;99.90;;;;;;5066400;28;20100;-74
2022/12/10 09:35:57;;;;;;;36.47;17.90;;;2.10;99.90;;;;;;5066509;28;20116;-74
2022/12/10 09:38:23;;;;;;;43.83;17.55;;;1.40;99.90;;;;;;5066606;28;20450;-74
2022/12/10 09:41:04;;;;;;;45.25;18.52;;;1.00;99.90;;;;;;5067522;28;20386;-75
2022/12/10 09:43:48;;;;;;;40.13;18.65;;;0.40;99.90;;;;;;5064383;28;20021;-75
2022/12/10 09:46:19;;;;;;;40.78;17.60;;;0.40;99.90;;;;;;5067165;28;20025;-76
2022/12/10 09:49:00;;;;;;;38.47;16.08;;;0.30;99.90;;;;;;5065986;28;20090;-76
2022/12/10 09:51:31;;;;;;;52.97;18.73;;;0.40;99.90;;;;;;5064754;28;20024;-74
2022/12/10 09:53:59;;;;;;;40.78;16.92;;;0.70;99.90;;;;;;5066005;28;20021;-74
2022/12/10 09:56:39;;;;;;;44.20;16.42;;;1.80;99.90;;;;;;5064605;28;20123;-75
2022/12/10 09:59:34;;;;;;;43.08;16.75;;;1.60;99.90;;;;;;5064454;28;20017;-76
2022/12/10 10:02:20;;;;;;;39.75;18.85;;;2.30;99.90;;;;;;5065851;28;20045;-74
2022/12/10 10:04:47;;;;;;;41.90;18.02;;;0.50;99.90;;;;;;5053544;28;20682;-75
2022/12/10 10:07:22;;;;;;;41.80;16.77;;;0.60;99.90;;;;;;5066537;28;20024;-75
2022/12/10 10:09:48;;;;;;;37.03;15.98;;;0.60;99.90;;;;;;5066102;28;20430;-75
2022/12/10 10:12:15;;;;;;;38.90;18.63;;;0.70;99.90;;;;;;5068433;28;20028;-74
2022/12/10 10:14:43;;;;;;;41.08;18.45;;;0.70;99.90;;;;;;5067461;28;20032;-75
2022/12/10 10:17:23;;;;;;;38.43;16.70;;;2.50;99.90;;;;;;5069454;28;20116;-75
2022/12/10 10:19:49;;;;;;;37.33;14.93;;;0.70;99.90;;;;;;5067040;28;20335;-76
2022/12/10 10:22:15;;;;;;;39.30;18.73;;;1.00;99.90;;;;;;5069562;28;20045;-75
2022/12/10 10:24:45;;;;;;;30.10;15.43;;;0.80;99.90;;;;;;5070539;28;20021;-74
2022/12/10 10:27:15;;;;;;;;;;;2.30;99.90;;;;;;5071531;28;20251;-75
2022/12/10 10:29:43;;;;;;;40.08;19.02;;;0.90;99.90;;;;;;5070969;28;19989;-74
2022/12/10 10:32:20;;;;;;;50.10;18.90;;;1.00;99.90;;;;;;5080513;28;20031;-74
2022/12/10 10:34:52;;;;;;;40.63;16.23;;;1.00;99.90;;;;;;5078939;28;20047;-75
2022/12/10 10:37:30;;;;;;;41.83;18.75;;;1.00;99.90;;;;;;5080381;28;20036;-73
2022/12/10 10:39:57;;;;;;;33.75;15.65;;;0.90;99.90;;;;;;5080432;28;20477;-75
2022/12/10 10:42:35;;;;;;;36.25;15.65;;;1.00;99.90;;;;;;5080593;28;20189;-75
2022/12/10 10:45:04;;;;;;;45.63;18.95;;;1.20;99.90;;;;;;5065337;28;20255;-75
2022/12/10 10:47:33;;;;;;;41.77;19.00;;;1.20;99.90;;;;;;5051860;28;20074;-76
2022/12/10 10:49:59;;;;;;;38.00;16.33;;;1.30;99.90;;;;;;5050125;28;20714;-76
2022/12/10 10:52:29;;;;;;;34.75;15.07;;;1.10;99.90;;;;;;5049623;28;20119;-75
2022/12/10 10:54:55;;;;;;;44.22;16.25;;;2.00;99.90;;;;;;5048929;28;20021;-76
2022/12/10 10:57:37;;;;;;;36.33;17.45;;;1.70;99.90;;;;;;5050065;28;20036;-74
2022/12/10 11:00:20;;;;;;;39.28;14.40;;;1.10;99.90;;;;;;5049901;28;20133;-75
2022/12/10 11:02:46;;;;;;;45.20;17.40;;;1.10;99.90;;;;;;5050420;28;20573;-73
2022/12/10 11:05:23;;;;;;;37.67;15.10;;;1.80;99.90;;;;;;5050019;28;20252;-76
2022/12/10 11:08:01;;;;;;;50.47;14.98;;;1.00;99.90;;;;;;5050804;28;20099;-75
2022/12/10 11:10:28;;;;;;;35.15;15.38;;;1.60;99.90;;;;;;5049453;28;20566;-74
2022/12/10 11:13:04;;;;;;;40.15;16.23;;;1.00;99.90;;;;;;5048064;28;20617;-74
2022/12/10 11:15:40;;;;;;;32.00;14.25;;;0.80;99.90;;;;;;5049532;28;20029;-76
2022/12/10 11:18:21;;;;;;;34.65;16.80;;;1.90;99.90;;;;;;5048256;28;20120;-77
2022/12/10 11:21:11;;;;;;;39.15;16.50;;;0.70;99.90;;;;;;5049973;28;20504;-75
2022/12/10 11:23:43;;;;;;;38.35;18.23;;;1.30;99.90;;;;;;5050417;28;20037;-76
2022/12/10 11:26:33;;;;;;;33.00;13.27;;;0.70;99.90;;;;;;5050173;28;20021;-77
2022/12/10 11:29:18;;;;;;;30.38;14.82;;;0.60;99.90;;;;;;5052207;28;20021;-78
2022/12/10 11:32:07;;;;;;;43.38;17.40;;;0.50;99.90;;;;;;5068563;28;20035;-76
2022/12/10 11:34:47;;;;;;;33.83;15.23;;;0.60;99.90;;;;;;5071337;28;20020;-76
2022/12/10 11:37:16;;;;;;;40.80;15.73;;;0.60;99.90;;;;;;5071314;28;20120;-76
2022/12/10 11:40:06;;;;;;;37.90;15.00;;;0.60;99.90;;;;;;5070014;28;20657;-76
2022/12/10 11:42:37;;;;;;;37.88;16.83;;;0.60;99.90;;;;;;5069859;28;20021;-75
2022/12/10 11:45:54;;;;;;;36.58;13.40;;;2.10;99.90;;;;;;5071642;28;20096;-75
2022/12/10 11:48:25;;;;;;;39.40;14.57;;;0.60;99.90;;;;;;5053052;28;20036;-76
2022/12/10 11:51:02;;;;;;;38.03;16.40;;;0.60;99.90;;;;;;5070866;28;20012;-76
2022/12/10 11:53:27;;;;;;;35.58;16.25;;;2.30;99.90;;;;;;5069800;28;20510;-75
2022/12/10 11:56:05;;;;;;;31.88;15.48;;;1.00;99.90;;;;;;5070057;28;20118;-76
2022/12/10 11:58:51;;;;;;;32.45;15.70;;;0.70;99.90;;;;;;5071418;28;20049;-75
2022/12/10 12:01:50;;;;;;;40.65;18.10;;;0.70;99.90;;;;;;5071394;28;20020;-75
2022/12/10 12:04:25;;;;;;;42.63;16.35;;;0.70;99.90;;;;;;5070023;28;20059;-76
2022/12/10 12:07:04;;;;;;;34.83;15.88;;;0.80;99.90;;;;;;5070844;28;20016;-75
2022/12/10 12:10:04;;;;;;;39.88;16.67;;;0.90;99.90;;;;;;5071280;28;20046;-75
2022/12/10 12:12:53;;;;;;;34.40;15.32;;;0.80;99.90;;;;;;5070898;28;20070;-74
2022/12/10 12:15:30;;;;;;;43.80;17.80;;;0.80;99.90;;;;;;5051712;28;20496;-74
2022/12/10 12:18:02;;;;;;;43.92;19.25;;;0.80;99.90;;;;;;5071645;28;20029;-74
2022/12/10 12:20:58;;;;;;;41.75;17.98;;;1.10;99.90;;;;;;5070840;28;20028;-74
2022/12/10 12:23:50;;;;;;;39.65;16.58;;;1.60;99.90;;;;;;5060365;28;20060;-75
2022/12/10 12:26:40;;;;;;;37.15;17.80;;;0.70;99.90;;;;;;5065063;28;20094;-76
2022/12/10 12:29:11;;;;;;;;;;;0.70;99.90;;;;;;5069403;28;20090;-74
2022/12/10 12:31:41;;;;;;;33.38;14.38;;;1.60;99.90;;;;;;5069945;28;20258;-74
2022/12/10 12:34:25;;;;;;;35.25;14.63;;;0.60;99.90;;;;;;5070294;28;20017;-73
2022/12/10 12:36:51;;;;;;;33.72;14.27;;;0.70;99.90;;;;;;5070323;28;20046;-75
2022/12/10 12:39:25;;;;;;;34.80;13.18;;;0.80;99.90;;;;;;5068655;28;20025;-76
2022/12/10 12:42:03;;;;;;;31.55;14.15;;;0.70;99.90;;;;;;5069854;28;20017;-75
2022/12/10 12:44:43;;;;;;;25.15;12.15;;;0.80;99.90;;;;;;5068813;28;20028;-75
2022/12/10 12:47:39;;;;;;;38.83;13.63;;;0.70;99.90;;;;;;5069983;28;20183;-76
2022/12/10 12:50:11;;;;;;;30.88;14.57;;;0.80;99.90;;;;;;5051028;28;20033;-74
2022/12/10 12:52:51;;;;;;;30.00;14.65;;;0.90;99.90;;;;;;5069851;28;20054;-73
2022/12/10 12:55:24;;;;;;;29.20;11.93;;;0.90;99.90;;;;;;5068188;28;20021;-73
2022/12/10 12:58:04;;;;;;;27.08;11.65;;;2.30;99.90;;;;;;5068688;28;20037;-74
2022/12/10 13:00:35;;;;;;;29.58;13.30;;;2.60;99.90;;;;;;5070193;28;20028;-73